Flight Track Log - Related Links

Times and Time Zones

All times are in EDT time to prevent confusion due to time zone crossing. See the N741FX flight status page for this flight to view local times or setup timezone preferences in your user account.

Time Position Orientation Groundspeed Altitude Reporting Facility
EDT Latitude Longitude Course Direction KTS MPH feet Rate Location/Type
Wed 08:54:14 PM 31.2967 -100.4956 113° Southeast 111 128 4,400  Level Fort Worth Center
Wed 08:55:16 PM 31.2836 -100.4575 112° Southeast 125 144 5,000 532 Climbing Fort Worth Center
Wed 08:56:18 PM 31.2697 -100.4142 111° Southeast 130 150 5,500 532 Climbing Fort Worth Center
Wed 08:57:20 PM 31.2567 -100.3711 110° East 135 155 6,100 532 Climbing Fort Worth Center
Wed 08:58:00 PM 31.3500 -100.4748 113° Southeast  Level FlightAware Approximate
Wed 08:58:22 PM 31.2425 -100.3261 110° East 135 155 6,600  Level Fort Worth Center
Wed 08:59:00 PM 31.3358 -100.4358 113° Southeast  Level FlightAware Approximate
Wed 08:59:24 PM 31.2283 -100.2839 111° Southeast 137 158 7,000  Level Fort Worth Center
Wed 09:00:26 PM 31.2128 -100.2403 113° Southeast 143 165 6,900  Descending Fort Worth Center
Wed 09:01:28 PM 31.1997 -100.1925 108° East 143 165 7,000 48 Climbing Fort Worth Center
Wed 09:02:30 PM 31.1878 -100.1456 107° East 145 167 7,000 -48 Level Fort Worth Center
Wed 09:03:32 PM 31.1736 -100.0986 109° East 145 167 6,900  Descending Fort Worth Center
Wed 09:04:34 PM 31.1606 -100.0528 108° East 146 168 7,000  Climbing Fort Worth Center
Wed 09:05:36 PM 31.1472 -100.0053 108° East 145 167 6,900  Descending Fort Worth Center
Wed 09:06:38 PM 31.1353 -99.9594 107° East 145 167 7,000 48 Climbing Fort Worth Center
Wed 09:07:40 PM 31.1203 -99.9139 111° Southeast 147 169 7,000  Level Fort Worth Center
Wed 09:08:42 PM 31.1022 -99.8675 114° Southeast 147 169 7,000  Level Fort Worth Center
Wed 09:09:44 PM 31.0836 -99.8236 116° Southeast 148 170 7,000  Level Fort Worth Center
Wed 09:10:46 PM 31.0650 -99.7772 115° Southeast 148 170 7,000  Level Fort Worth Center
Wed 09:11:43 PM 31.0481 -99.7361 116° Southeast 147 169 7,000  Level Houston Center
Wed 09:12:45 PM 31.0303 -99.6931 116° Southeast 147 169 7,000  Level Houston Center
Wed 09:13:47 PM 31.0144 -99.6500 113° Southeast 147 169 7,000  Level Houston Center
Wed 09:14:48 PM 30.9964 -99.6075 116° Southeast 147 169 7,000  Level Houston Center
Wed 09:15:50 PM 30.9794 -99.5639 114° Southeast 147 169 7,000  Level Houston Center
Wed 09:16:51 PM 30.9614 -99.5206 116° Southeast 147 169 7,000  Level Houston Center
Wed 09:17:53 PM 30.9447 -99.4778 114° Southeast 147 169 7,000 -49 Level Houston Center
Wed 09:18:54 PM 30.9272 -99.4364 116° Southeast 147 169 6,900  Descending Houston Center
Wed 09:19:55 PM 30.9061 -99.3833 115° Southeast 147 169 7,000 49 Climbing Houston Center
Wed 09:20:57 PM 30.8892 -99.3406 115° Southeast 147 169 7,000  Level Houston Center
Wed 09:21:58 PM 30.8706 -99.2961 116° Southeast 148 170 7,000  Level Houston Center
Wed 09:23:00 PM 30.8528 -99.2539 116° Southeast 148 170 7,000  Level Houston Center
Wed 09:24:01 PM 30.8356 -99.2106 115° Southeast 148 170 7,000  Level Houston Center
Wed 09:25:03 PM 30.8178 -99.1681 116° Southeast 148 170 7,000 49 Level Houston Center
Wed 09:26:04 PM 30.7994 -99.1233 116° Southeast 148 170 7,100 49 Climbing Houston Center
Wed 09:27:05 PM 30.7831 -99.0800 114° Southeast 148 170 7,100  Level Houston Center
Wed 09:28:07 PM 30.7653 -99.0367 116° Southeast 148 170 7,100  Level Houston Center
Wed 09:29:08 PM 30.7433 -98.9844 116° Southeast 148 170 7,100  Level Houston Center
Wed 09:30:09 PM 30.7258 -98.9406 115° Southeast 148 170 7,100  Level Houston Center
Wed 09:31:11 PM 30.7078 -98.8967 116° Southeast 148 170 7,100  Level Houston Center
Wed 09:32:12 PM 30.6886 -98.8536 117° Southeast 148 170 7,100  Level Houston Center
Wed 09:33:14 PM 30.6722 -98.8100 114° Southeast 148 170 7,100  Level Houston Center
Wed 09:34:15 PM 30.6542 -98.7669 116° Southeast 148 170 7,100  Level Houston Center
Wed 09:35:16 PM 30.6361 -98.7239 116° Southeast 148 170 7,100  Level Houston Center
Wed 09:36:18 PM 30.6181 -98.6814 116° Southeast 149 171 7,100  Level Houston Center
Wed 09:37:19 PM 30.5992 -98.6375 117° Southeast 148 170 7,100  Level Houston Center
Wed 09:38:20 PM 30.5778 -98.5856 116° Southeast 149 171 7,100  Level Houston Center
Wed 09:39:22 PM 30.5606 -98.5417 114° Southeast 149 171 7,100 -49 Level Houston Center
Wed 09:40:23 PM 30.5419 -98.4981 116° Southeast 149 171 7,000 -49 Descending Houston Center
Wed 09:41:24 PM 30.5242 -98.4547 115° Southeast 149 171 7,000 -148 Level Houston Center
Wed 09:42:25 PM 30.5050 -98.4100 116° Southeast 150 173 6,700 -244 Descending Houston Center
Wed 09:43:27 PM 30.4864 -98.3644 115° Southeast 153 176 6,500 -244 Descending Houston Center
Wed 09:44:28 PM 30.4669 -98.3203 117° Southeast 153 176 6,200 -177 Descending Houston Center
Wed 09:50:14 PM 30.3571 -98.0557 122° Southeast 94 108 5,300 -146 Descending FlightAware ADS-B (KGTU)
Wed 09:53:21 PM 30.2997 -97.9196 116° Southeast 147 169 4,900 -248 Descending FlightAware ADS-B (KGTU)
Wed 09:54:40 PM 30.2917 -97.8636 116° Southeast 161 185 4,200 -553 Descending Houston Center
Wed 09:55:42 PM 30.2892 -97.8097 93° East 167 192 3,600 -732 Descending Houston Center
Wed 09:56:43 PM 30.2669 -97.7544 115° Southeast 164 189 2,700 -934 Descending Houston Center
Wed 09:57:44 PM 30.2431 -97.7108 122° Southeast 163 188 1,700 -836 Descending Houston Center
Wed 09:58:45 PM 30.2225 -97.6750 124° Southeast 152 175 1,000 -689 Descending Houston Center
Wed 10:00:00 PM 30.1945 -97.6699 111° Southeast  Level Estimated
Wed 10:07:00 PM 30.1945 -97.6699 111° Southeast  Level Estimated
Wed 10:08:00 PM 30.1945 -97.6699 166° South  Level Estimated

Login

Don't have an account? Register now (free) for customized features, flight alerts, and more!